Pilar Observatorio, Argentina
Current Conditions -  °F | °C
As of 1:00 AM on Thursday 23 Oct 2014 (Local Time) from SACO Reporting Station
Clear Clear  
Wind Chill: 70°   Ceiling: Unl
Heat Index: 70°   Visibility: 6mi
Dew Point: 45°   Wind: 9mph
Humidity: 40%   Direction: 360°N
Pressure: 30.06"   Gusts: NA
Location:  31.67°S, 63.88°W
Report Text: SACO 230400Z 36008KT CAVOK 21/07 Q1018
Loading
Personal Weather Stations






























Interactive Weather Map
Tropical Storm Tracking
New forecast layout! Learn more

10-Day Weather Forecast

Advertisements
Track Severe Weather on mobile